AirNav   Pilot Hours Calculator
 
 613 users online  

CA74 Skydive California Airport
Tracy, California, USA

GOING TO TRACY?


FAA INFORMATION EFFECTIVE 03 NOVEMBER 2022

Location

FAA Identifier: CA74
Lat/Long: 37-43-52.7750N 121-20-08.1200W
37-43.879583N 121-20.135333W
37.7313264,-121.3355889
(estimated)
Elevation: 35 ft. / 11 m (estimated)
From city: 4 miles E of TRACY, CA
Time zone: UTC -8 (UTC -7 during Daylight Saving Time)
Zip code: 95304

Airport Operations

Airport use: Private use. Permission required prior to landing
Activation date: 11/2014
Control tower: no
ARTCC: OAKLAND CENTER
FSS: RANCHO MURIETA FLIGHT SERVICE STATION
Attendance: 
Wind indicator: yes
Segmented circle: no

Airport Communications

WX AWOS-3 at TCY (6 nm SW): 118.375 (209-831-4335)
WX ASOS at SCK (11 nm NE): PHONE 209-982-4270
WX AWOS-3 at C83 (15 nm NW): 123.775 (925-634-0906)
WX ASOS at MOD (19 nm E): 127.7 (209-572-0914)

Nearby radio navigation aids

VOR radial/distance  VOR name  Freq  Var
MODr272/19.0MODESTO VOR/DME114.6017E
LINr200/25.9LINDEN VOR/DME114.8017E
SJCr038/36.0SAN JOSE VOR/DME114.1016E
CCRr102/38.5CONCORD VOR/DME117.0017E

Airport Services

Runway Information

Runway 12/30

Dimensions: 2063 x 30 ft. / 629 x 9 m
Surface: asphalt
RUNWAY 12  RUNWAY 30
Latitude: 37-43.998833N37-43.760333N
Longitude: 121-20.287833W121-19.982833W
Elevation: 33.0 ft.35.0 ft.
Traffic pattern: rightleft
Touchdown point: yes, no lightsyes, no lights

Airport Ownership and Management from official FAA records

Ownership: Privately-owned
Owner: SKYDIVE CALIFORNIA, LLC
25001 KASSON RD
TRACY, CA 95304
Phone 209-835-7474
Manager: AARON OEHRLE-STEELE
25001 KASSON RD
TRACY, CA 95304
Phone 209-835-7474

Airport Operational Statistics

Aircraft based on the field: 5
Single engine airplanes: 5
    

Additional Remarks

FOR CD CTC NORCAL APCH AT 916-361-0516.

Instrument Procedures

There are no published instrument procedures at CA74.

Some nearby airports with instrument procedures:

KTCY - Tracy Municipal Airport (6 nm SW)
KSCK - Stockton Metro Airport (11 nm NE)
C83 - Byron Airport (15 nm NW)
KMOD - Modesto City-County Airport-Harry Sham Field (19 nm E)
KLVK - Livermore Municipal Airport (23 nm W)
 
Loc | Ops | Rwys | IFR | FBO | Links
Com | Nav | Svcs | Stats | Notes
Aerial photo
No photo
 
Airport distance calculator
Flying to Skydive California Airport? Find the distance to fly.

From to CA74

Sunrise and sunset
Times for 28-Nov-2022
 Local
(UTC-8)
 Zulu
(UTC)
Morning civil twilight06:3114:31
Sunrise07:0015:00
Sunset16:4700:47
Evening civil twilight17:1501:15

Current date and time
Zulu (UTC)  28-Nov-2022 11:25:00
Local (UTC-8)  28-Nov-2022 03:25:00
 
METAR
KTCY 
6nm SW 
281055Z AUTO 00000KT 10SM FEW033 FEW039 FEW044 07/M00 A2996 RMK A01
KSCK 
11nm NE 
281055Z AUTO 13004KT 8SM CLR 05/02 A2996 RMK AO2 SLP145 T00500017
KC83 
15nm NW 
281055Z AUTO 00000KT 10SM CLR 06/02 A2997 RMK AO2
KMOD 
20nm E 
281053Z AUTO 10003KT 6SM BR CLR 03/02 A2996 RMK AO2 SLP144 T00330022
TAF
KSCK 
11nm NE 
280521Z 2806/2906 VRB05KT P6SM SCT250 FM280900 VRB03KT 5SM BR SCT200 FM281800 30008KT P6SM SCT150
KMOD 
20nm E 
280521Z 2806/2906 VRB03KT 4SM BR SCT250 FM280900 00000KT 3SM BR SCT200 FM281800 32008KT P6SM SCT150
NOTAMs
Click for the latest NOTAMs
NOTAMs are issued by the DoD/FAA and will open in a separate window not controlled by AirNav.

 

 
 

Would you like to see your business listed on this page?

 If your business provides an interesting product or service to pilots, flight crews, aircraft, or users of the Skydive California Airport, you should consider listing it here.  To start the listing process, click on the button below
 
Add a business
 

Other Pages about Skydive California Airport

Update a link
 
Copyright © AirNav, LLC. All rights reserved. Privacy Policy  Contact